Time;durP1;ratioP1;P1;durP2;ratioP2;P2;SDS_P1;SDS_P2;PMS_P1;PMS_P2;Temp;Humidity;BMP_temperature;BMP_pressure;BME280_temperature;BME280_humidity;BME280_pressure;Samples;Min_cycle;Max_cycle;Signal;HPM_P1;HPM_P2
2023/03/15 00:00:32;;;;;;;4.40;3.70;;;;;;;5.95;100.00;97731.64;109722;1250;59909;-72
2023/03/15 00:03:18;;;;;;;3.50;3.30;;;;;;;5.73;100.00;97752.17;109703;1250;67718;-72
2023/03/15 00:05:47;;;;;;;4.10;3.80;;;;;;;5.54;100.00;97763.82;109752;1249;60140;-72
2023/03/15 00:08:14;;;;;;;4.10;3.80;;;;;;;5.40;100.00;97783.77;109511;1251;63712;-72
2023/03/15 00:10:42;;;;;;;5.00;4.50;;;;;;;5.29;100.00;97801.38;109708;1251;59851;-72
2023/03/15 00:13:09;;;;;;;5.20;4.70;;;;;;;5.17;100.00;97811.84;109731;1249;59883;-72
2023/03/15 00:15:35;;;;;;;6.20;5.60;;;;;;;5.02;100.00;97831.83;109519;1250;65342;-72
2023/03/15 00:18:02;;;;;;;6.70;6.20;;;;;;;4.91;100.00;97847.13;109737;1249;59787;-72
2023/03/15 00:20:29;;;;;;;6.30;5.90;;;;;;;4.83;100.00;97860.79;109380;1250;64929;-72
2023/03/15 00:22:56;;;;;;;8.00;7.20;;;;;;;4.75;100.00;97875.54;109739;1250;59808;-72
2023/03/15 00:25:23;;;;;;;7.70;7.00;;;;;;;4.68;100.00;97884.63;109734;1251;59816;-72
2023/03/15 00:27:50;;;;;;;6.90;6.30;;;;;;;4.61;100.00;97886.41;109750;1250;67868;-72
2023/03/15 00:30:16;;;;;;;6.20;5.70;;;;;;;4.58;100.00;97893.98;109724;1250;60821;-72
2023/03/15 00:32:43;;;;;;;6.30;5.80;;;;;;;4.56;100.00;97899.62;109695;1251;64716;-72
2023/03/15 00:35:11;;;;;;;6.40;5.90;;;;;;;4.53;100.00;97907.15;109743;1250;59876;-72
2023/03/15 00:37:38;;;;;;;6.90;6.30;;;;;;;4.50;100.00;97919.11;109521;1250;59967;-72
2023/03/15 00:40:06;;;;;;;6.90;6.30;;;;;;;4.47;100.00;97927.91;109417;1251;67860;-72
2023/03/15 00:42:33;;;;;;;6.20;5.70;;;;;;;4.42;100.00;97934.89;109445;1251;61000;-72
2023/03/15 00:44:59;;;;;;;7.80;7.20;;;;;;;4.37;100.00;97952.24;109372;1251;63816;-72
2023/03/15 00:47:26;;;;;;;6.80;6.30;;;;;;;4.34;100.00;97961.54;109711;1251;59894;-72
2023/03/15 00:49:52;;;;;;;6.60;6.10;;;;;;;4.32;100.00;97964.66;109816;1249;60610;-72
2023/03/15 00:52:20;;;;;;;7.90;7.30;;;;;;;4.30;100.00;97964.96;109749;1249;68303;-72
2023/03/15 00:54:52;;;;;;;6.60;6.00;;;;;;;4.25;100.00;97970.67;109753;1250;59867;-72
2023/03/15 00:57:20;;;;;;;7.20;6.50;;;;;;;4.21;100.00;97980.57;109746;1251;63725;-72
2023/03/15 00:59:47;;;;;;;7.90;6.20;;;;;;;4.17;100.00;97982.55;109705;1250;59818;-72
2023/03/15 01:02:13;;;;;;;6.90;6.30;;;;;;;4.14;100.00;97987.52;109779;1249;59780;-72
2023/03/15 01:04:40;;;;;;;6.70;5.90;;;;;;;4.14;100.00;97988.94;109750;1250;67580;-72
2023/03/15 01:07:07;;;;;;;5.40;5.10;;;;;;;4.12;100.00;97990.62;109367;1251;61184;-72
2023/03/15 01:09:33;;;;;;;5.10;4.70;;;;;;;4.08;100.00;97983.63;109759;1250;63828;-72
2023/03/15 01:12:00;;;;;;;5.70;5.20;;;;;;;4.05;100.00;97978.89;109768;1249;59734;-72
2023/03/15 01:14:27;;;;;;;5.40;5.00;;;;;;;4.02;100.00;97970.42;109740;1249;60226;-72
2023/03/15 01:16:53;;;;;;;4.50;4.10;;;;;;;4.00;100.00;97959.32;109750;1251;67899;-72
2023/03/15 01:19:20;;;;;;;5.60;5.10;;;;;;;3.96;100.00;97958.08;109781;1250;59859;-72
2023/03/15 01:21:46;;;;;;;5.30;4.90;;;;;;;3.94;100.00;97965.26;109724;1250;65183;-72
2023/03/15 01:24:14;;;;;;;5.40;5.00;;;;;;;3.93;100.00;97969.52;109739;1250;59862;-72
2023/03/15 01:26:40;;;;;;;6.40;5.20;;;;;;;3.93;100.00;97963.90;109721;1249;59699;-72
2023/03/15 01:29:07;;;;;;;5.70;5.10;;;;;;;3.93;100.00;97962.85;109749;1251;66527;-72
2023/03/15 01:31:33;;;;;;;6.70;6.10;;;;;;;3.91;100.00;97974.17;109392;1250;59958;-72
2023/03/15 01:34:00;;;;;;;7.40;6.70;;;;;;;3.88;100.00;97978.95;109693;1249;64707;-72
2023/03/15 01:36:27;;;;;;;6.90;6.30;;;;;;;3.85;100.00;97985.27;109700;1249;59739;-72
2023/03/15 01:38:53;;;;;;;7.50;6.30;;;;;;;3.82;100.00;97997.88;109757;1250;59857;-72
2023/03/15 01:41:23;;;;;;;7.70;7.00;;;;;;;3.83;100.00;98007.53;109808;1249;67489;-72
2023/03/15 01:43:50;;;;;;;7.00;6.40;;;;;;;3.82;100.00;98016.88;109761;1249;61174;-72
2023/03/15 01:46:27;;;;;;;8.20;7.40;;;;;;;3.79;100.00;98029.20;109717;1249;64677;-72
2023/03/15 01:49:16;;;;;;;6.90;6.10;;;;;;;3.74;100.00;98040.86;109530;1249;59825;-72
2023/03/15 01:52:15;;;;;;;8.10;6.80;;;;;;;3.71;100.00;98051.88;109788;1249;59710;-72
2023/03/15 01:54:51;;;;;;;7.40;6.80;;;;;;;3.69;100.00;98059.94;109018;1257;66201;-72
2023/03/15 01:57:25;;;;;;;7.00;6.30;;;;;;;3.68;100.00;98061.55;109022;1257;60763;-72
2023/03/15 02:00:01;;;;;;;8.80;7.00;;;;;;;3.68;100.00;98066.27;109014;1257;64724;-72
2023/03/15 02:02:28;;;;;;;8.80;7.40;;;;;;;3.67;100.00;98068.62;109068;1257;60140;-71
2023/03/15 02:05:08;;;;;;;8.60;7.80;;;;;;;3.66;100.00;98072.55;109027;1257;60830;-71
2023/03/15 02:07:37;;;;;;;8.10;7.40;;;;;;;3.65;100.00;98080.69;109020;1257;67819;-71
2023/03/15 02:10:11;;;;;;;8.40;7.60;;;;;;;3.64;100.00;98085.31;109009;1257;59908;-72
2023/03/15 02:12:44;;;;;;;7.90;7.10;;;;;;;3.62;100.00;98086.14;109025;1257;64735;-72
2023/03/15 02:15:13;;;;;;;10.10;8.60;;;;;;;3.58;100.00;98089.52;108897;1258;59803;-71
2023/03/15 02:17:45;;;;;;;9.40;8.50;;;;;;;3.55;100.00;98097.92;109028;1257;59893;-71
2023/03/15 02:20:14;;;;;;;9.30;8.20;;;;;;;3.53;100.00;98104.89;109000;1257;67532;-72
2023/03/15 02:22:52;;;;;;;8.30;7.30;;;;;;;3.51;100.00;98106.05;109030;1257;60753;-71
2023/03/15 02:25:56;;;;;;;9.70;7.00;;;;;;;3.48;100.00;98106.19;108974;1257;64691;-72
2023/03/15 02:28:23;;;;;;;6.90;6.20;;;;;;;3.43;100.00;98105.55;109050;1257;59868;-72
2023/03/15 02:30:49;;;;;;;7.90;7.10;;;;;;;3.42;100.00;98108.43;109048;1257;59807;-72
2023/03/15 02:33:29;;;;;;;12.20;6.90;;;;;;;3.41;100.00;98105.47;109752;1251;67571;-72
2023/03/15 02:36:07;;;;;;;8.40;6.60;;;;;;;3.41;100.00;98105.87;109796;1249;59879;-72
2023/03/15 02:38:33;;;;;;;7.80;5.90;;;;;;;3.39;100.00;98103.83;109751;1249;64830;-72
2023/03/15 02:41:00;;;;;;;5.60;4.90;;;;;;;3.38;100.00;98106.02;109724;1250;59847;-72
2023/03/15 02:43:30;;;;;;;9.90;4.60;;;;;;;3.34;100.00;98105.33;109814;1249;59863;-73
2023/03/15 02:45:58;;;;;;;7.20;3.50;;;;;;;3.32;100.00;98112.66;109790;1250;66441;-72
2023/03/15 02:48:25;;;;;;;5.90;3.40;;;;;;;3.28;100.00;98115.29;109594;1249;60765;-71
2023/03/15 02:50:52;;;;;;;12.60;4.40;;;;;;;3.28;100.00;98120.23;109781;1250;65211;-72
2023/03/15 02:53:18;;;;;;;4.10;3.00;;;;;;;3.28;100.00;98124.27;109705;1249;59753;-72
2023/03/15 02:55:45;;;;;;;5.30;3.20;;;;;;;3.27;100.00;98122.02;109707;1249;59830;-71
2023/03/15 02:58:11;;;;;;;5.30;3.80;;;;;;;3.27;100.00;98125.02;109584;1250;67464;-72
2023/03/15 03:00:38;;;;;;;11.60;4.00;;;;;;;3.26;100.00;98127.48;109752;1250;60218;-72
2023/03/15 03:03:05;;;;;;;8.20;3.50;;;;;;;3.26;100.00;98127.33;109747;1249;65402;-71
2023/03/15 03:05:31;;;;;;;5.00;3.40;;;;;;;3.25;100.00;98132.29;109772;1249;59805;-72
2023/03/15 03:07:58;;;;;;;4.60;3.60;;;;;;;3.25;100.00;98140.55;109756;1250;59823;-71
2023/03/15 03:10:24;;;;;;;6.80;3.20;;;;;;;3.25;100.00;98143.86;109702;1249;66407;-71
2023/03/15 03:12:52;;;;;;;5.20;3.10;;;;;;;3.26;100.00;98149.95;109662;1250;60125;-71
2023/03/15 03:15:19;;;;;;;7.50;4.30;;;;;;;3.28;100.00;98161.11;109390;1250;63733;-71
2023/03/15 03:17:46;;;;;;;4.80;3.90;;;;;;;3.30;100.00;98167.15;109614;1250;59825;-71
2023/03/15 03:20:13;;;;;;;7.30;4.20;;;;;;;3.33;100.00;98168.40;109652;1250;60468;-72
2023/03/15 03:22:40;;;;;;;7.60;4.40;;;;;;;3.34;100.00;98170.63;109645;1251;66457;-71
2023/03/15 03:25:11;;;;;;;7.10;5.10;;;;;;;3.34;100.00;98174.13;109651;1250;60167;-71
2023/03/15 03:27:40;;;;;;;5.50;4.10;;;;;;;3.34;100.00;98174.17;109590;1250;65234;-71
2023/03/15 03:30:10;;;;;;;9.60;5.50;;;;;;;3.35;100.00;98175.88;109588;1250;59718;-71
2023/03/15 03:32:39;;;;;;;8.90;5.80;;;;;;;3.33;100.00;98186.30;109372;1250;59913;-71
2023/03/15 03:35:06;;;;;;;8.40;6.40;;;;;;;3.31;100.00;98189.73;109666;1250;67789;-71
2023/03/15 03:37:34;;;;;;;10.50;6.30;;;;;;;3.30;100.00;98193.83;109652;1250;61182;-71
2023/03/15 03:40:05;;;;;;;9.30;6.40;;;;;;;3.28;100.00;98199.73;109624;1250;64784;-71
2023/03/15 03:42:32;;;;;;;13.10;5.90;;;;;;;3.27;100.00;98202.08;109594;1250;59793;-71
2023/03/15 03:44:59;;;;;;;7.10;5.30;;;;;;;3.26;100.00;98202.80;109645;1250;59734;-72
2023/03/15 03:47:25;;;;;;;8.60;5.20;;;;;;;3.25;100.00;98206.89;109617;1250;67514;-71
2023/03/15 03:49:52;;;;;;;9.00;4.80;;;;;;;3.25;100.00;98208.67;109617;1250;59810;-71
2023/03/15 03:52:18;;;;;;;9.70;4.60;;;;;;;3.24;100.00;98213.60;109685;1250;64817;-71
2023/03/15 03:54:45;;;;;;;10.80;4.50;;;;;;;3.25;100.00;98219.71;109650;1250;59798;-71
2023/03/15 03:57:11;;;;;;;6.80;4.00;;;;;;;3.24;100.00;98224.67;109631;1250;59938;-71
2023/03/15 03:59:38;;;;;;;12.30;5.00;;;;;;;3.23;100.00;98230.67;109625;1250;66467;-71
2023/03/15 04:02:05;;;;;;;6.60;4.00;;;;;;;3.23;100.00;98231.91;109612;1250;59893;-71
2023/03/15 04:04:31;;;;;;;7.40;4.40;;;;;;;3.25;100.00;98238.54;109602;1250;64797;-71
2023/03/15 04:06:58;;;;;;;8.10;4.90;;;;;;;3.25;100.00;98231.48;109618;1250;59776;-71
2023/03/15 04:09:24;;;;;;;11.70;5.20;;;;;;;3.26;100.00;98226.67;109698;1250;59799;-71
2023/03/15 04:11:51;;;;;;;13.40;5.20;;;;;;;3.26;100.00;98223.33;109654;1250;66547;-71
2023/03/15 04:14:18;;;;;;;7.60;5.20;;;;;;;3.27;100.00;98221.55;109419;1250;59901;-71
2023/03/15 04:16:44;;;;;;;8.70;4.90;;;;;;;3.27;100.00;98222.09;109691;1250;63702;-71
2023/03/15 04:19:14;;;;;;;10.90;5.70;;;;;;;3.26;100.00;98223.16;109617;1250;59790;-72
2023/03/15 04:21:46;;;;;;;11.00;5.70;;;;;;;3.26;100.00;98226.69;109646;1250;59817;-71
2023/03/15 04:24:13;;;;;;;12.80;6.80;;;;;;;3.23;100.00;98228.06;109377;1250;67501;-71
2023/03/15 04:26:40;;;;;;;8.90;5.90;;;;;;;3.20;100.00;98229.30;109613;1250;60773;-72
2023/03/15 04:29:09;;;;;;;8.30;5.50;;;;;;;3.17;100.00;98229.09;109600;1250;64007;-71
2023/03/15 04:31:37;;;;;;;10.30;5.70;;;;;;;3.15;100.00;98235.87;109596;1250;59809;-71
2023/03/15 04:34:04;;;;;;;7.30;5.20;;;;;;;3.12;100.00;98236.88;109699;1250;59784;-71
2023/03/15 04:36:31;;;;;;;9.50;5.90;;;;;;;3.10;100.00;98237.48;109690;1250;67992;-71
2023/03/15 04:39:02;;;;;;;11.50;5.90;;;;;;;3.08;100.00;98237.05;109646;1250;59865;-71
2023/03/15 04:41:29;;;;;;;11.70;6.60;;;;;;;3.07;100.00;98236.05;109565;1250;63770;-71
2023/03/15 04:43:56;;;;;;;12.00;7.70;;;;;;;3.06;100.00;98239.61;108897;1250;1002387;-71
2023/03/15 04:46:22;;;;;;;14.60;8.10;;;;;;;3.05;100.00;98244.40;109553;1250;59681;-71
2023/03/15 04:48:50;;;;;;;15.50;7.70;;;;;;;3.04;100.00;98245.81;109598;1250;66810;-71
2023/03/15 04:51:16;;;;;;;13.20;6.90;;;;;;;3.04;100.00;98243.20;109714;1250;60792;-71
2023/03/15 04:53:43;;;;;;;19.80;8.60;;;;;;;3.03;100.00;98245.19;109586;1250;64888;-71
2023/03/15 04:56:09;;;;;;;16.40;7.50;;;;;;;3.02;100.00;98252.27;109571;1250;59784;-71
2023/03/15 04:58:36;;;;;;;15.60;7.80;;;;;;;3.00;100.00;98250.94;109677;1250;59824;-71
2023/03/15 05:01:02;;;;;;;12.10;7.20;;;;;;;2.99;100.00;98254.69;109645;1250;66452;-71
2023/03/15 05:03:30;;;;;;;13.10;7.30;;;;;;;2.99;100.00;98260.85;109621;1250;59816;-71
2023/03/15 05:05:56;;;;;;;11.60;7.70;;;;;;;2.98;100.00;98261.43;109625;1250;65013;-71
2023/03/15 05:08:23;;;;;;;11.30;7.20;;;;;;;2.96;100.00;98267.27;109620;1250;59956;-72
2023/03/15 05:10:50;;;;;;;11.80;6.80;;;;;;;2.96;100.00;98272.37;108587;1250;1003231;-71
2023/03/15 05:13:17;;;;;;;12.70;7.60;;;;;;;2.97;100.00;98272.85;109581;1250;67528;-71
2023/03/15 05:15:44;;;;;;;13.80;7.10;;;;;;;2.95;100.00;98273.30;109631;1250;61082;-72
2023/03/15 05:18:11;;;;;;;11.20;6.80;;;;;;;2.92;100.00;98274.13;109632;1250;63663;-71
2023/03/15 05:20:38;;;;;;;14.00;6.90;;;;;;;2.90;100.00;98278.64;109666;1250;59728;-71
2023/03/15 05:23:04;;;;;;;11.30;7.50;;;;;;;2.90;100.00;98284.59;109600;1250;60589;-71
2023/03/15 05:25:31;;;;;;;9.70;6.40;;;;;;;2.91;100.00;98291.74;109611;1250;67874;-71
2023/03/15 05:27:57;;;;;;;12.80;7.60;;;;;;;2.92;100.00;98293.27;109652;1250;61049;-71
2023/03/15 05:30:24;;;;;;;15.70;8.40;;;;;;;2.93;100.00;98293.25;109671;1250;65043;-71
2023/03/15 05:32:51;;;;;;;16.50;8.10;;;;;;;2.95;100.00;98294.55;109607;1250;59718;-71
2023/03/15 05:35:17;;;;;;;11.20;7.10;;;;;;;2.97;100.00;98297.07;109611;1250;59637;-71
2023/03/15 05:37:44;;;;;;;12.00;7.00;;;;;;;2.99;100.00;98300.46;109647;1250;67570;-71
2023/03/15 05:40:11;;;;;;;10.70;6.60;;;;;;;3.00;100.00;98302.19;109633;1250;60711;-72
2023/03/15 05:42:38;;;;;;;14.90;7.60;;;;;;;3.01;100.00;98309.30;109406;1250;65235;-72
2023/03/15 05:45:05;;;;;;;8.50;6.30;;;;;;;3.03;100.00;98313.27;109670;1250;59808;-72
2023/03/15 05:47:32;;;;;;;10.30;6.20;;;;;;;3.05;100.00;98316.88;109683;1250;59802;-71
2023/03/15 05:49:59;;;;;;;10.90;6.80;;;;;;;3.06;100.00;98317.71;109590;1250;67879;-71
2023/03/15 05:52:26;;;;;;;12.90;7.00;;;;;;;3.06;100.00;98319.78;109673;1250;60229;-71
2023/03/15 05:54:52;;;;;;;8.70;6.00;;;;;;;3.09;100.00;98321.77;109645;1250;63693;-71
2023/03/15 05:57:19;;;;;;;9.80;6.50;;;;;;;3.09;100.00;98322.80;109571;1250;59911;-72
2023/03/15 05:59:45;;;;;;;7.30;6.20;;;;;;;3.07;100.00;98329.39;109394;1250;59980;-72
2023/03/15 06:02:12;;;;;;;11.80;7.40;;;;;;;3.07;100.00;98330.27;109609;1250;67833;-72
2023/03/15 06:04:40;;;;;;;12.20;6.90;;;;;;;3.11;100.00;98333.09;109597;1250;61056;-72
2023/03/15 06:07:06;;;;;;;10.00;6.60;;;;;;;3.17;100.00;98339.11;109569;1250;65371;-72
2023/03/15 06:09:33;;;;;;;11.70;6.90;;;;;;;3.22;100.00;98347.13;109637;1250;60096;-72
2023/03/15 06:12:00;;;;;;;14.80;7.50;;;;;;;3.25;100.00;98353.14;109665;1250;59787;-72
2023/03/15 06:14:27;;;;;;;9.30;5.80;;;;;;;3.30;100.00;98358.16;109627;1250;68079;-72
2023/03/15 06:16:53;;;;;;;10.40;6.30;;;;;;;3.35;100.00;98370.20;109634;1250;61299;-72
2023/03/15 06:19:21;;;;;;;13.80;7.60;;;;;;;3.38;100.00;98372.70;109583;1250;64961;-72
2023/03/15 06:21:48;;;;;;;13.80;8.40;;;;;;;3.42;100.00;98378.84;109605;1250;59740;-72
2023/03/15 06:24:15;;;;;;;13.80;8.50;;;;;;;3.48;100.00;98382.56;109663;1250;59829;-71
2023/03/15 06:26:41;;;;;;;16.00;7.70;;;;;;;3.53;100.00;98391.11;109649;1250;66686;-72
2023/03/15 06:29:08;;;;;;;13.30;7.80;;;;;;;3.56;100.00;98394.84;109664;1250;61194;-72
2023/03/15 06:31:34;;;;;;;12.10;6.80;;;;;;;3.62;100.00;98397.18;109431;1250;63730;-72
2023/03/15 06:34:01;;;;;;;15.60;8.20;;;;;;;3.67;100.00;98392.38;109662;1250;59773;-72
2023/03/15 06:36:30;;;;;;;13.90;9.30;;;;;;;3.73;100.00;98390.54;109611;1250;60127;-72
2023/03/15 06:38:57;;;;;;;17.20;9.30;;;;;;;3.79;100.00;98395.69;109656;1250;67886;-72
2023/03/15 06:41:25;;;;;;;15.10;8.80;;;;;;;3.84;100.00;98401.05;109658;1250;60019;-72
2023/03/15 06:43:52;;;;;;;14.80;8.60;;;;;;;3.92;100.00;98410.31;109615;1250;64136;-71
2023/03/15 06:46:18;;;;;;;13.00;7.20;;;;;;;3.98;100.00;98414.05;109610;1250;59798;-71
2023/03/15 06:48:45;;;;;;;14.60;7.70;;;;;;;4.01;99.75;98420.61;109646;1251;59683;-72
2023/03/15 06:51:11;;;;;;;12.00;5.90;;;;;;;4.02;99.14;98432.83;109371;1250;66771;-72
2023/03/15 06:53:38;;;;;;;13.10;6.00;;;;;;;4.06;98.59;98433.18;109692;1250;60085;-72
2023/03/15 06:56:05;;;;;;;12.50;5.70;;;;;;;4.13;98.45;98431.77;109382;1250;64729;-72
2023/03/15 06:58:31;;;;;;;12.50;6.30;;;;;;;4.21;98.35;98436.12;109620;1250;59794;-72
2023/03/15 07:00:58;;;;;;;10.20;6.20;;;;;;;4.30;97.77;98438.29;108883;1250;1002860;-72
2023/03/15 07:03:25;;;;;;;9.60;5.60;;;;;;;4.40;97.63;98439.20;109389;1250;67955;-72
2023/03/15 07:05:53;;;;;;;12.90;6.70;;;;;;;4.52;97.22;98440.70;109618;1250;60704;-72
2023/03/15 07:08:21;;;;;;;10.40;5.70;;;;;;;4.60;96.10;98442.74;109633;1250;64910;-72
2023/03/15 07:10:49;;;;;;;12.30;6.20;;;;;;;4.67;94.54;98443.98;109595;1250;59887;-72
2023/03/15 07:13:17;;;;;;;8.90;5.70;;;;;;;4.69;93.44;98443.55;109675;1250;59563;-72
2023/03/15 07:15:44;;;;;;;8.40;4.90;;;;;;;4.67;92.08;98443.48;109697;1250;67552;-72
2023/03/15 07:18:10;;;;;;;11.10;5.40;;;;;;;4.63;91.90;98444.17;109370;1250;59914;-72
2023/03/15 07:20:37;;;;;;;11.60;4.80;;;;;;;4.59;90.74;98448.27;109666;1250;65084;-72
2023/03/15 07:23:04;;;;;;;10.10;5.10;;;;;;;4.53;90.82;98456.86;109601;1250;59810;-73
2023/03/15 07:25:31;;;;;;;11.80;4.60;;;;;;;4.44;89.59;98458.56;109651;1250;59826;-72
2023/03/15 07:27:57;;;;;;;9.10;4.80;;;;;;;4.35;89.91;98456.67;109611;1250;75015;-72
2023/03/15 07:30:24;;;;;;;10.70;4.30;;;;;;;4.32;90.33;98460.91;109706;1250;59827;-72
2023/03/15 07:32:50;;;;;;;9.70;4.40;;;;;;;4.33;90.54;98463.98;109339;1250;62483;-72
2023/03/15 07:35:17;;;;;;;12.30;4.20;;;;;;;4.40;91.01;98461.20;109609;1250;59779;-72
2023/03/15 07:37:44;;;;;;;8.10;4.00;;;;;;;4.45;88.98;98463.39;109441;1250;59803;-71
2023/03/15 07:40:12;;;;;;;6.80;4.20;;;;;;;4.48;89.09;98472.22;109614;1250;68012;-71
2023/03/15 07:42:39;;;;;;;10.50;5.70;;;;;;;4.57;89.57;98475.46;109622;1250;60820;-72
2023/03/15 07:45:07;;;;;;;12.60;4.70;;;;;;;4.68;89.31;98481.73;109679;1250;62446;-72
2023/03/15 07:47:34;;;;;;;11.60;3.80;;;;;;;4.74;88.88;98486.00;109652;1250;60122;-72
2023/03/15 07:50:01;;;;;;;14.70;5.60;;;;;;;4.79;87.71;98492.42;109696;1250;59804;-71
2023/03/15 07:52:27;;;;;;;11.80;3.60;;;;;;;4.88;87.40;98494.48;109649;1250;67933;-71
2023/03/15 07:54:54;;;;;;;10.70;4.90;;;;;;;4.94;86.28;98498.22;109647;1250;60854;-72
2023/03/15 07:57:20;;;;;;;13.70;4.10;;;;;;;4.98;84.87;98496.45;109640;1250;65100;-71
2023/03/15 07:59:47;;;;;;;10.70;3.80;;;;;;;5.04;85.12;98503.83;109597;1251;59838;-71
2023/03/15 08:02:14;;;;;;;10.10;3.70;;;;;;;5.18;84.43;98505.95;109570;1250;59770;-71
2023/03/15 08:04:40;;;;;;;9.20;3.90;;;;;;;5.25;82.47;98508.70;109627;1250;67964;-71
2023/03/15 08:07:07;;;;;;;9.90;3.40;;;;;;;5.29;82.62;98511.48;109684;1250;59787;-72
2023/03/15 08:09:34;;;;;;;7.90;3.80;;;;;;;5.37;82.33;98511.29;109633;1250;65042;-72
2023/03/15 08:12:01;;;;;;;9.40;4.10;;;;;;;5.39;82.65;98514.00;109633;1250;59871;-71
2023/03/15 08:14:29;;;;;;;11.40;3.50;;;;;;;5.42;83.15;98519.61;109640;1250;59825;-71
2023/03/15 08:16:55;;;;;;;10.50;3.90;;;;;;;5.48;82.69;98521.23;109645;1250;67841;-71
2023/03/15 08:19:22;;;;;;;8.50;2.90;;;;;;;5.43;80.57;98526.23;109656;1250;60719;-71
2023/03/15 08:21:52;;;;;;;8.10;2.90;;;;;;;5.36;82.08;98529.95;109632;1250;64724;-72
2023/03/15 08:24:20;;;;;;;9.10;3.40;;;;;;;5.41;82.66;98533.73;109634;1250;59788;-71
2023/03/15 08:26:47;;;;;;;9.20;3.80;;;;;;;5.49;82.32;98535.10;109619;1250;59885;-71
2023/03/15 08:29:14;;;;;;;10.70;3.80;;;;;;;5.56;80.69;98537.01;109633;1250;66718;-71
2023/03/15 08:31:41;;;;;;;6.80;2.80;;;;;;;5.55;79.23;98541.66;109692;1250;60746;-71
2023/03/15 08:34:07;;;;;;;8.30;2.60;;;;;;;5.50;79.42;98540.14;109619;1250;63824;-71
2023/03/15 08:36:34;;;;;;;11.70;3.20;;;;;;;5.48;78.50;98539.74;109610;1250;59824;-71
2023/03/15 08:39:04;;;;;;;6.50;3.20;;;;;;;5.44;78.71;98545.55;109636;1250;59845;-71
2023/03/15 08:41:31;;;;;;;8.20;3.10;;;;;;;5.43;77.89;98548.98;109646;1250;66976;-71
2023/03/15 08:43:58;;;;;;;11.40;3.40;;;;;;;5.43;78.24;98549.30;109630;1249;60724;-71
2023/03/15 08:46:26;;;;;;;13.30;3.20;;;;;;;5.50;77.72;98548.42;109684;1252;65280;-71
2023/03/15 08:48:52;;;;;;;5.40;2.50;;;;;;;5.56;77.94;98554.44;109658;1250;59742;-71
2023/03/15 08:51:20;;;;;;;6.60;2.50;;;;;;;5.67;77.18;98555.98;109588;1250;59820;-71
2023/03/15 08:53:47;;;;;;;6.80;2.90;;;;;;;5.72;77.08;98562.20;109332;1250;68096;-71
2023/03/15 08:56:13;;;;;;;8.60;3.00;;;;;;;5.75;75.16;98562.44;109641;1250;60728;-71
2023/03/15 08:58:40;;;;;;;9.10;2.80;;;;;;;5.70;74.82;98565.36;109676;1250;63839;-71
2023/03/15 09:01:10;;;;;;;6.80;3.10;;;;;;;5.69;75.38;98569.42;109598;1250;59763;-71
2023/03/15 09:03:37;;;;;;;8.20;2.90;;;;;;;5.75;76.14;98573.52;109637;1252;59925;-71
2023/03/15 09:06:05;;;;;;;3.70;2.20;;;;;;;5.87;76.66;98572.52;109390;1250;67481;-71
2023/03/15 09:08:32;;;;;;;8.40;3.10;;;;;;;5.97;76.03;98580.47;109677;1250;60784;-71
2023/03/15 09:11:00;;;;;;;6.60;3.20;;;;;;;5.96;75.08;98587.05;109621;1250;63721;-71
2023/03/15 09:13:27;;;;;;;8.20;3.90;;;;;;;5.98;74.11;98589.08;109448;1250;59895;-71
2023/03/15 09:15:55;;;;;;;7.00;2.80;;;;;;;6.02;73.99;98597.14;109649;1250;59897;-72
2023/03/15 09:18:24;;;;;;;7.90;2.90;;;;;;;6.01;72.59;98594.92;109592;1250;66768;-71
2023/03/15 09:20:51;;;;;;;9.50;3.20;;;;;;;5.92;71.69;98592.19;109724;1250;61109;-72
2023/03/15 09:23:18;;;;;;;4.90;2.40;;;;;;;5.84;71.61;98591.55;109360;1250;64821;-71
2023/03/15 09:25:44;;;;;;;7.90;2.80;;;;;;;5.84;72.54;98595.09;109628;1250;59761;-71
2023/03/15 09:28:11;;;;;;;10.10;3.30;;;;;;;5.94;73.19;98593.32;109639;1250;59820;-71
2023/03/15 09:30:40;;;;;;;11.80;3.30;;;;;;;6.00;72.58;98591.79;109594;1250;73990;-71
2023/03/15 09:33:07;;;;;;;10.60;3.10;;;;;;;6.01;72.24;98591.89;109644;1250;59901;-72
2023/03/15 09:35:34;;;;;;;7.50;2.70;;;;;;;6.07;71.65;98589.30;109615;1250;65165;-73
2023/03/15 09:38:02;;;;;;;10.20;2.90;;;;;;;6.09;70.78;98589.00;109539;1250;59826;-73
2023/03/15 09:40:33;;;;;;;9.80;3.10;;;;;;;6.07;70.04;98589.98;109588;1250;59885;-72
2023/03/15 09:43:06;;;;;;;5.60;3.50;;;;;;;6.09;70.65;98590.91;109621;1250;66964;-72
2023/03/15 09:45:53;;;;;;;8.50;2.70;;;;;;;6.15;71.19;98586.70;109320;1250;59930;-72
2023/03/15 09:48:31;;;;;;;7.10;3.00;;;;;;;6.19;71.18;98584.20;109644;1250;64699;-73
2023/03/15 09:51:01;;;;;;;11.00;3.20;;;;;;;6.27;71.95;98580.25;109642;1250;59803;-71
2023/03/15 09:53:40;;;;;;;6.20;2.80;;;;;;;6.33;70.30;98584.84;109655;1250;59962;-72
2023/03/15 09:56:23;;;;;;;6.90;2.60;;;;;;;6.28;69.82;98590.38;109655;1250;67583;-72
2023/03/15 09:58:53;;;;;;;8.30;3.50;;;;;;;6.18;69.95;98594.33;109651;1250;59863;-72
2023/03/15 10:01:28;;;;;;;8.60;3.40;;;;;;;6.14;70.75;98598.92;109613;1250;64312;-72
2023/03/15 10:03:55;;;;;;;7.50;3.40;;;;;;;6.16;70.99;98604.13;109330;1250;59796;-72
2023/03/15 10:06:33;;;;;;;4.90;2.70;;;;;;;6.24;70.40;98608.29;109656;1250;59719;-72
2023/03/15 10:09:09;;;;;;;6.30;3.00;;;;;;;6.19;69.68;98614.52;109630;1250;67763;-72
2023/03/15 10:11:46;;;;;;;4.60;2.40;;;;;;;6.20;69.45;98617.86;109629;1252;61141;-73
2023/03/15 10:14:24;;;;;;;7.20;3.00;;;;;;;6.17;69.36;98620.30;109663;1250;64855;-72
2023/03/15 10:16:51;;;;;;;9.60;2.60;;;;;;;6.20;68.85;98622.79;109644;1250;59765;-73
2023/03/15 10:19:44;;;;;;;9.70;3.00;;;;;;;6.14;68.59;98626.97;109639;1250;59808;-72
2023/03/15 10:22:20;;;;;;;8.20;2.70;;;;;;;6.07;69.14;98626.65;109662;1250;66834;-72
2023/03/15 10:25:25;;;;;;;8.20;3.60;;;;;;;6.06;69.34;98623.20;109677;1250;60813;-72
2023/03/15 10:27:56;;;;;;;7.50;2.50;;;;;;;6.04;68.98;98627.33;108926;1258;64778;-72
2023/03/15 10:30:26;;;;;;;5.50;2.10;;;;;;;6.07;69.01;98630.17;108930;1258;59792;-72
2023/03/15 10:33:04;;;;;;;6.40;2.80;;;;;;;6.17;69.22;98632.44;108945;1258;59936;-72
2023/03/15 10:35:31;;;;;;;6.40;3.20;;;;;;;6.29;68.83;98634.48;108950;1258;67512;-72
2023/03/15 10:37:58;;;;;;;9.50;2.90;;;;;;;6.36;67.47;98634.21;108991;1258;66384;-72
2023/03/15 10:40:40;;;;;;;6.40;3.10;;;;;;;6.41;66.84;98633.95;108937;1258;64736;-73
2023/03/15 10:43:23;;;;;;;8.20;3.00;;;;;;;6.40;66.32;98634.23;108858;1258;59784;-73
2023/03/15 10:46:06;;;;;;;5.10;2.80;;;;;;;6.28;65.46;98636.27;108936;1258;59802;-72
2023/03/15 10:48:36;;;;;;;6.50;3.00;;;;;;;6.23;66.26;98635.83;108947;1258;67497;-72
2023/03/15 10:51:05;;;;;;;10.10;3.00;;;;;;;6.29;66.41;98635.00;108215;1258;976812;-73
2023/03/15 10:53:32;;;;;;;6.80;3.20;;;;;;;6.32;66.40;98633.77;108877;1258;64941;-72
2023/03/15 10:56:06;;;;;;;10.40;3.50;;;;;;;6.35;66.84;98637.79;108790;1258;60142;-72
2023/03/15 10:58:46;;;;;;;7.70;3.00;;;;;;;6.38;66.81;98636.07;108950;1258;59925;-72
2023/03/15 11:01:23;;;;;;;9.40;2.80;;;;;;;6.36;66.54;98637.94;109071;1250;67534;-72
2023/03/15 11:04:25;;;;;;;7.50;2.40;;;;;;;6.41;67.72;98635.58;109644;1250;69371;-72
2023/03/15 11:06:54;;;;;;;5.10;2.20;;;;;;;6.46;66.60;98638.99;108910;1258;65199;-73
2023/03/15 11:09:22;;;;;;;6.70;2.50;;;;;;;6.42;66.22;98640.27;108914;1258;59906;-72
2023/03/15 11:11:57;;;;;;;5.50;2.30;;;;;;;6.44;66.29;98637.88;108864;1258;59911;-73
2023/03/15 11:14:25;;;;;;;10.00;2.70;;;;;;;6.43;66.14;98638.98;108966;1258;66476;-72
2023/03/15 11:16:55;;;;;;;5.10;2.00;;;;;;;6.48;66.85;98639.59;108938;1258;60803;-86
2023/03/15 11:19:26;;;;;;;7.90;2.60;;;;;;;6.58;66.20;98633.73;108867;1258;63235;-74
2023/03/15 11:21:55;;;;;;;5.50;2.00;;;;;;;6.65;65.56;98632.10;108930;1258;59914;-74
2023/03/15 11:24:30;;;;;;;7.90;2.20;;;;;;;6.66;63.77;98631.88;108974;1258;60326;-74
2023/03/15 11:27:00;;;;;;;6.10;2.60;;;;;;;6.66;63.09;98633.95;108954;1258;67613;-74
2023/03/15 11:29:28;;;;;;;4.50;1.70;;;;;;;6.76;63.65;98632.52;108937;1258;59945;-74
2023/03/15 11:31:57;;;;;;;6.80;2.30;;;;;;;6.86;63.43;98629.67;108956;1258;65529;-74